createdAt,value
2023-09-25T00:00:13.005Z,9.719075
2023-09-25T00:01:13.014Z,9.719168
2023-09-25T00:02:12.944Z,9.719084
2023-09-25T00:03:13.160Z,9.719063
2023-09-25T00:04:12.964Z,9.719055
2023-09-25T00:05:12.926Z,9.719159
2023-09-25T00:06:12.948Z,9.719159
2023-09-25T00:07:12.896Z,9.719108
2023-09-25T00:08:12.886Z,9.719049
2023-09-25T00:09:12.952Z,9.719075
2023-09-25T00:10:12.869Z,9.719026
2023-09-25T00:11:12.857Z,9.719232
2023-09-25T00:12:12.899Z,9.719085
2023-09-25T00:13:12.853Z,9.719136
2023-09-25T00:14:12.870Z,9.719181
2023-09-25T00:15:12.843Z,9.719176
2023-09-25T00:16:12.861Z,9.719023
2023-09-25T00:17:12.804Z,9.719104
2023-09-25T00:18:12.934Z,9.719203
2023-09-25T00:19:12.911Z,9.719285
2023-09-25T00:20:12.823Z,9.719222
2023-09-25T00:21:12.801Z,9.719207
2023-09-25T00:22:12.766Z,9.719384
2023-09-25T00:23:12.743Z,9.719357
2023-09-25T00:24:12.748Z,9.719356
2023-09-25T00:25:12.782Z,9.719287
2023-09-25T00:26:12.709Z,9.719303
2023-09-25T00:27:12.747Z,9.719253
2023-09-25T00:28:12.718Z,9.719107
2023-09-25T00:29:12.700Z,9.719168
2023-09-25T00:30:12.692Z,9.719318
2023-09-25T00:31:12.657Z,9.719357
2023-09-25T00:32:12.652Z,9.719272
2023-09-25T00:33:12.772Z,9.719255
2023-09-25T00:34:12.775Z,9.719207
2023-09-25T00:35:12.619Z,9.719247
2023-09-25T00:36:12.702Z,9.719233
2023-09-25T00:37:12.612Z,9.719399
2023-09-25T00:38:12.656Z,9.719331
2023-09-25T00:39:12.634Z,9.719321
2023-09-25T00:40:12.610Z,9.719264
2023-09-25T00:41:12.552Z,9.719199
2023-09-25T00:42:12.570Z,9.719216
2023-09-25T00:43:12.556Z,9.719249
2023-09-25T00:44:12.527Z,9.719251
2023-09-25T00:45:12.541Z,9.719358
2023-09-25T00:46:12.591Z,9.719240
2023-09-25T00:47:12.490Z,9.719379
2023-09-25T00:48:12.599Z,9.719336
2023-09-25T00:49:12.491Z,9.719227
2023-09-25T00:50:12.479Z,9.719234
2023-09-25T00:51:12.471Z,9.719212
2023-09-25T00:52:12.445Z,9.719229
2023-09-25T00:53:12.435Z,9.719216
2023-09-25T00:54:12.512Z,9.719202
2023-09-25T00:55:12.492Z,9.719218
2023-09-25T00:56:12.418Z,9.719421
2023-09-25T00:57:12.400Z,9.719305
2023-09-25T00:58:12.429Z,9.719364
2023-09-25T00:59:12.375Z,9.719344
2023-09-25T01:00:12.404Z,9.719331
2023-09-25T01:01:12.397Z,9.719280
2023-09-25T01:02:12.343Z,9.719223
2023-09-25T01:03:12.499Z,9.719225
2023-09-25T01:04:12.321Z,9.719307
2023-09-25T01:05:12.331Z,9.719263
2023-09-25T01:06:12.327Z,9.719185
2023-09-25T01:07:12.295Z,9.719170
2023-09-25T01:08:12.340Z,9.719142
2023-09-25T01:09:12.315Z,9.719316
2023-09-25T01:10:12.276Z,9.719142
2023-09-25T01:11:12.261Z,9.719090
2023-09-25T01:12:12.281Z,9.719129
2023-09-25T01:13:12.292Z,9.719182
2023-09-25T01:14:12.279Z,9.719208
2023-09-25T01:15:12.332Z,9.719410
2023-09-25T01:16:12.211Z,9.719358
2023-09-25T01:17:12.206Z,9.719406
2023-09-25T01:18:12.230Z,9.719336
2023-09-25T01:19:12.215Z,9.719146
2023-09-25T01:20:12.156Z,9.719350
2023-09-25T01:21:12.258Z,9.719191
2023-09-25T01:22:12.137Z,9.719330
2023-09-25T01:23:12.128Z,9.719344
2023-09-25T01:24:12.214Z,9.719102
2023-09-25T01:25:12.117Z,9.718925
2023-09-25T01:26:12.106Z,9.719073
2023-09-25T01:27:12.112Z,9.718826
2023-09-25T01:28:12.087Z,9.718554
2023-09-25T01:29:12.093Z,9.718782
2023-09-25T01:30:12.141Z,9.718827
2023-09-25T01:31:12.064Z,9.719206
2023-09-25T01:32:12.135Z,9.719180
2023-09-25T01:33:12.091Z,9.719234
2023-09-25T01:34:12.112Z,9.719247
2023-09-25T01:35:12.011Z,9.719199
2023-09-25T01:36:12.065Z,9.719198
2023-09-25T01:37:11.988Z,9.719297
2023-09-25T01:38:11.987Z,9.719188
2023-09-25T01:39:12.027Z,9.719124
2023-09-25T01:40:11.962Z,9.719113
2023-09-25T01:41:11.972Z,9.719038
2023-09-25T01:42:11.974Z,9.719031
2023-09-25T01:43:11.954Z,9.719087
2023-09-25T01:44:11.932Z,9.719058
2023-09-25T01:45:11.937Z,9.718965
2023-09-25T01:46:11.927Z,9.718826
2023-09-25T01:47:11.921Z,9.718887
2023-09-25T01:48:11.966Z,9.718857
2023-09-25T01:49:11.906Z,9.719067
2023-09-25T01:50:11.868Z,9.718934
2023-09-25T01:51:12.109Z,9.719027
2023-09-25T01:52:11.844Z,9.719062
2023-09-25T01:53:11.847Z,9.719060
2023-09-25T01:54:11.840Z,9.718897
2023-09-25T01:55:11.808Z,9.718905
2023-09-25T01:56:11.805Z,9.718894
2023-09-25T01:57:11.918Z,9.719044
2023-09-25T01:58:11.803Z,9.719118
2023-09-25T01:59:11.828Z,9.719136
2023-09-25T02:00:11.825Z,9.718999
2023-09-25T02:01:11.747Z,9.718962
2023-09-25T02:02:11.761Z,9.719055
2023-09-25T02:03:12.063Z,9.718879
2023-09-25T02:04:12.044Z,9.719005
2023-09-25T02:05:12.090Z,9.719063
2023-09-25T02:06:11.739Z,9.719148
2023-09-25T02:07:11.689Z,9.719157
2023-09-25T02:08:11.695Z,9.719085
2023-09-25T02:09:11.744Z,9.719105
2023-09-25T02:10:11.708Z,9.719089
2023-09-25T02:11:11.651Z,9.719031
2023-09-25T02:12:11.685Z,9.718955
2023-09-25T02:13:11.645Z,9.719102
2023-09-25T02:14:11.617Z,9.719268
2023-09-25T02:15:11.652Z,9.719217
2023-09-25T02:16:11.651Z,9.719210
2023-09-25T02:17:11.636Z,9.719251
2023-09-25T02:18:11.634Z,9.719267
2023-09-25T02:19:11.610Z,9.719229
2023-09-25T02:20:11.563Z,9.719241
2023-09-25T02:21:11.590Z,9.719207
2023-09-25T02:22:11.549Z,9.719184
2023-09-25T02:23:11.573Z,9.719149
2023-09-25T02:24:11.561Z,9.719162
2023-09-25T02:25:11.514Z,9.719019
2023-09-25T02:26:11.506Z,9.719180
2023-09-25T02:27:11.518Z,9.719272
2023-09-25T02:28:11.483Z,9.719306
2023-09-25T02:29:11.495Z,9.719318
2023-09-25T02:30:11.555Z,9.719173
2023-09-25T02:31:11.493Z,9.719131
2023-09-25T02:32:11.468Z,9.719108
2023-09-25T02:33:11.497Z,9.719172
2023-09-25T02:34:11.431Z,9.719192
2023-09-25T02:35:11.412Z,9.719159
2023-09-25T02:36:11.424Z,9.719234
2023-09-25T02:37:11.379Z,9.719227
2023-09-25T02:38:11.385Z,9.719488
2023-09-25T02:39:11.445Z,9.719499
2023-09-25T02:40:11.401Z,9.719437
2023-09-25T02:41:11.428Z,9.719163
2023-09-25T02:42:11.411Z,9.719349
2023-09-25T02:43:11.333Z,9.719756
2023-09-25T02:44:11.306Z,9.719629
2023-09-25T02:45:11.469Z,9.719728
2023-09-25T02:46:11.372Z,9.719945
2023-09-25T02:47:12.285Z,9.719718
2023-09-25T02:48:11.334Z,9.719690
2023-09-25T02:49:11.267Z,9.719737
2023-09-25T02:50:11.302Z,9.719874
2023-09-25T02:51:11.304Z,9.719924
2023-09-25T02:52:11.243Z,9.719866
2023-09-25T02:53:11.225Z,9.719850
2023-09-25T02:54:11.251Z,9.719764
2023-09-25T02:55:11.203Z,9.719918
2023-09-25T02:56:11.199Z,9.719773
2023-09-25T02:57:11.238Z,9.719572
2023-09-25T02:58:12.178Z,9.719598
2023-09-25T02:59:11.191Z,9.719804
2023-09-25T03:00:11.248Z,9.719748
2023-09-25T03:01:11.173Z,9.719439
2023-09-25T03:02:11.140Z,9.719345
2023-09-25T03:03:11.226Z,9.719381
2023-09-25T03:04:11.151Z,9.719685
2023-09-25T03:05:11.430Z,9.719498
2023-09-25T03:06:11.156Z,9.719544
2023-09-25T03:07:11.093Z,9.719556
2023-09-25T03:08:11.139Z,9.719406
2023-09-25T03:09:11.122Z,9.719340
2023-09-25T03:10:11.063Z,9.719341
2023-09-25T03:11:11.050Z,9.719293
2023-09-25T03:12:11.088Z,9.719276
2023-09-25T03:13:11.045Z,9.719286
2023-09-25T03:14:11.083Z,9.719320
2023-09-25T03:15:11.041Z,9.719252
2023-09-25T03:16:11.081Z,9.719243
2023-09-25T03:17:10.997Z,9.719266
2023-09-25T03:18:11.052Z,9.719280
2023-09-25T03:19:10.982Z,9.719276
2023-09-25T03:20:11.023Z,9.719336
2023-09-25T03:21:10.984Z,9.719296
2023-09-25T03:22:10.942Z,9.719220
2023-09-25T03:23:12.044Z,9.719247
2023-09-25T03:24:10.959Z,9.719202
2023-09-25T03:25:10.939Z,9.719174
2023-09-25T03:26:10.918Z,9.719169
2023-09-25T03:27:10.921Z,9.719217
2023-09-25T03:28:10.873Z,9.719332
2023-09-25T03:29:10.879Z,9.719358
2023-09-25T03:30:10.886Z,9.719341
2023-09-25T03:31:10.986Z,9.719268
2023-09-25T03:32:10.863Z,9.719254
2023-09-25T03:33:10.870Z,9.719361
2023-09-25T03:34:10.821Z,9.719338
2023-09-25T03:35:10.814Z,9.719388
2023-09-25T03:36:10.842Z,9.719363
2023-09-25T03:37:10.847Z,9.719385
2023-09-25T03:38:10.787Z,9.719400
2023-09-25T03:39:10.870Z,9.719284
2023-09-25T03:40:10.759Z,9.719122
2023-09-25T03:41:10.795Z,9.719294
2023-09-25T03:42:10.818Z,9.719286
2023-09-25T03:43:10.742Z,9.719300
2023-09-25T03:44:10.774Z,9.719367
2023-09-25T03:45:10.806Z,9.719106
2023-09-25T03:46:10.720Z,9.719011
2023-09-25T03:47:10.688Z,9.719244
2023-09-25T03:48:10.855Z,9.719252
2023-09-25T03:49:10.666Z,9.719152
2023-09-25T03:50:10.656Z,9.719211
2023-09-25T03:51:10.719Z,9.719182
2023-09-25T03:52:10.656Z,9.719262
2023-09-25T03:53:10.627Z,9.719248
2023-09-25T03:54:10.624Z,9.719193
2023-09-25T03:55:10.640Z,9.719131
2023-09-25T03:56:10.614Z,9.719226
2023-09-25T03:57:10.627Z,9.719213
2023-09-25T03:58:10.572Z,9.719170
2023-09-25T03:59:10.595Z,9.719085
2023-09-25T04:00:10.621Z,9.719089
2023-09-25T04:01:10.587Z,9.719272
2023-09-25T04:02:10.553Z,9.719157
2023-09-25T04:03:10.693Z,9.719074
2023-09-25T04:04:10.619Z,9.719121
2023-09-25T04:05:10.507Z,9.719245
2023-09-25T04:06:10.615Z,9.719279
2023-09-25T04:07:10.508Z,9.719262
2023-09-25T04:08:10.502Z,9.719277
2023-09-25T04:09:10.492Z,9.719200
2023-09-25T04:10:10.457Z,9.719274
2023-09-25T04:11:10.485Z,9.719250
2023-09-25T04:12:10.485Z,9.719263
2023-09-25T04:13:10.446Z,9.719179
2023-09-25T04:14:10.419Z,9.719208
2023-09-25T04:15:10.525Z,9.719235
2023-09-25T04:16:11.469Z,9.719281
2023-09-25T04:17:10.386Z,9.719166
2023-09-25T04:18:10.616Z,9.719200
2023-09-25T04:19:10.408Z,9.719307
2023-09-25T04:20:10.365Z,9.719265
2023-09-25T04:21:10.397Z,9.719247
2023-09-25T04:22:10.341Z,9.719262
2023-09-25T04:23:10.331Z,9.719269
2023-09-25T04:24:10.341Z,9.719303
2023-09-25T04:25:11.974Z,9.719300
2023-09-25T04:26:10.307Z,9.719222
2023-09-25T04:27:10.287Z,9.719284
2023-09-25T04:28:10.299Z,9.719289
2023-09-25T04:29:10.269Z,9.719280
2023-09-25T04:30:10.386Z,9.719207
2023-09-25T04:31:10.270Z,9.719179
2023-09-25T04:32:10.243Z,9.719190
2023-09-25T04:33:10.295Z,9.719185
2023-09-25T04:34:10.220Z,9.719191
2023-09-25T04:35:10.230Z,9.719226
2023-09-25T04:36:10.256Z,9.719185
2023-09-25T04:37:10.252Z,9.719221
2023-09-25T04:38:10.267Z,9.719151
2023-09-25T04:39:10.178Z,9.719188
2023-09-25T04:40:10.157Z,9.719250
2023-09-25T04:41:10.181Z,9.719244
2023-09-25T04:42:10.217Z,9.719218
2023-09-25T04:43:10.136Z,9.719204
2023-09-25T04:44:10.132Z,9.719255
2023-09-25T04:45:10.144Z,9.719224
2023-09-25T04:46:10.171Z,9.719161
2023-09-25T04:47:10.092Z,9.719230
2023-09-25T04:48:10.224Z,9.719151
2023-09-25T04:49:10.066Z,9.719322
2023-09-25T04:50:10.064Z,9.719205
2023-09-25T04:51:10.073Z,9.719225
2023-09-25T04:52:10.036Z,9.719235
2023-09-25T04:53:10.053Z,9.719361
2023-09-25T04:54:10.069Z,9.719316
2023-09-25T04:55:10.043Z,9.719364
2023-09-25T04:56:10.011Z,9.718982
2023-09-25T04:57:10.071Z,9.718952
2023-09-25T04:58:10.155Z,9.719078
2023-09-25T04:59:09.990Z,9.719126
2023-09-25T05:00:10.037Z,9.719146
2023-09-25T05:01:09.991Z,9.719032
2023-09-25T05:02:09.941Z,9.718920
2023-09-25T05:03:10.064Z,9.719065
2023-09-25T05:04:09.928Z,9.719155
2023-09-25T05:05:09.963Z,9.719067
2023-09-25T05:06:09.992Z,9.719189
2023-09-25T05:07:09.917Z,9.718919
2023-09-25T05:08:09.874Z,9.718957
2023-09-25T05:09:09.901Z,9.718925
2023-09-25T05:10:09.911Z,9.719069
2023-09-25T05:11:09.864Z,9.719064
2023-09-25T05:12:09.905Z,9.719098
2023-09-25T05:13:09.854Z,9.719332
2023-09-25T05:14:09.843Z,9.719357
2023-09-25T05:15:09.992Z,9.719254
2023-09-25T05:16:09.868Z,9.719167
2023-09-25T05:17:09.812Z,9.718884
2023-09-25T05:18:09.897Z,9.718950
2023-09-25T05:19:09.796Z,9.719235
2023-09-25T05:20:09.796Z,9.719197
2023-09-25T05:21:09.824Z,9.719275
2023-09-25T05:22:09.746Z,9.719233
2023-09-25T05:23:09.739Z,9.719183
2023-09-25T05:24:09.920Z,9.719365
2023-09-25T05:25:09.714Z,9.719173
2023-09-25T05:26:09.704Z,9.719345
2023-09-25T05:27:09.689Z,9.719299
2023-09-25T05:28:09.719Z,9.719429
2023-09-25T05:29:09.681Z,9.719330
2023-09-25T05:30:09.671Z,9.719287
2023-09-25T05:31:09.846Z,9.719323
2023-09-25T05:32:09.643Z,9.719220
2023-09-25T05:33:09.672Z,9.719379
2023-09-25T05:34:09.619Z,9.719325
2023-09-25T05:35:09.607Z,9.719417
2023-09-25T05:36:09.599Z,9.719297
2023-09-25T05:37:09.648Z,9.719233
2023-09-25T05:38:09.775Z,9.719229
2023-09-25T05:39:09.602Z,9.719045
2023-09-25T05:40:09.574Z,9.718945
2023-09-25T05:41:09.575Z,9.718904
2023-09-25T05:42:09.545Z,9.718859
2023-09-25T05:43:09.548Z,9.718904
2023-09-25T05:44:09.521Z,9.718801
2023-09-25T05:45:09.538Z,9.719168
2023-09-25T05:46:09.600Z,9.719135
2023-09-25T05:47:09.488Z,9.719396
2023-09-25T05:48:09.548Z,9.719394
2023-09-25T05:49:09.531Z,9.719477
2023-09-25T05:50:09.467Z,9.719582
2023-09-25T05:51:09.451Z,9.719640
2023-09-25T05:52:09.450Z,9.719605
2023-09-25T05:53:09.465Z,9.719315
2023-09-25T05:54:09.427Z,9.719430
2023-09-25T05:55:09.434Z,9.719299
2023-09-25T05:56:09.418Z,9.719262
2023-09-25T05:57:09.405Z,9.719354
2023-09-25T05:58:09.393Z,9.719386
2023-09-25T05:59:09.451Z,9.719129
2023-09-25T06:00:09.386Z,9.719008
2023-09-25T06:01:09.477Z,9.719083
2023-09-25T06:02:09.349Z,9.719126
2023-09-25T06:03:09.379Z,9.718941
2023-09-25T06:04:09.556Z,9.718994
2023-09-25T06:05:09.333Z,9.718826
2023-09-25T06:06:09.330Z,9.719043
2023-09-25T06:07:09.302Z,9.719199
2023-09-25T06:08:09.292Z,9.719186
2023-09-25T06:09:09.369Z,9.719139
2023-09-25T06:10:09.333Z,9.719172
2023-09-25T06:11:09.272Z,9.719049
2023-09-25T06:12:09.258Z,9.719189
2023-09-25T06:13:09.243Z,9.719037
2023-09-25T06:14:09.221Z,9.719226
2023-09-25T06:15:09.219Z,9.719410
2023-09-25T06:16:09.200Z,9.719311
2023-09-25T06:17:09.246Z,9.719050
2023-09-25T06:18:09.223Z,9.719015
2023-09-25T06:19:09.191Z,9.719234
2023-09-25T06:20:09.210Z,9.719398
2023-09-25T06:21:09.173Z,9.719572
2023-09-25T06:22:09.250Z,9.719388
2023-09-25T06:23:09.153Z,9.719084
2023-09-25T06:24:09.149Z,9.719122
2023-09-25T06:25:09.132Z,9.719281
2023-09-25T06:26:09.100Z,9.719378
2023-09-25T06:27:09.099Z,9.719298
2023-09-25T06:28:09.100Z,9.719363
2023-09-25T06:29:09.072Z,9.719108
2023-09-25T06:30:09.063Z,9.719197
2023-09-25T06:31:09.096Z,9.719254
2023-09-25T06:32:09.091Z,9.719135
2023-09-25T06:33:09.113Z,9.719196
2023-09-25T06:34:09.109Z,9.719332
2023-09-25T06:35:09.214Z,9.719415
2023-09-25T06:36:09.006Z,9.719337
2023-09-25T06:37:08.981Z,9.719279
2023-09-25T06:38:09.052Z,9.719134
2023-09-25T06:39:08.978Z,9.719103
2023-09-25T06:40:09.000Z,9.719142
2023-09-25T06:41:08.958Z,9.719079
2023-09-25T06:42:08.945Z,9.719096
2023-09-25T06:43:08.920Z,9.719053
2023-09-25T06:44:08.977Z,9.719041
2023-09-25T06:45:08.961Z,9.719024
2023-09-25T06:46:08.912Z,9.719110
2023-09-25T06:47:08.890Z,9.719127
2023-09-25T06:48:08.911Z,9.719049
2023-09-25T06:49:08.856Z,9.719151
2023-09-25T06:50:08.871Z,9.719125
2023-09-25T06:51:08.865Z,9.719225
2023-09-25T06:52:08.838Z,9.719254
2023-09-25T06:53:08.864Z,9.719094
2023-09-25T06:54:08.817Z,9.719186
2023-09-25T06:55:08.810Z,9.719194
2023-09-25T06:56:08.800Z,9.719300
2023-09-25T06:57:08.791Z,9.719345
2023-09-25T06:58:09.027Z,9.719220
2023-09-25T06:59:08.768Z,9.719285
2023-09-25T07:00:08.762Z,9.719303
2023-09-25T07:01:08.795Z,9.719203
2023-09-25T07:02:08.759Z,9.719168
2023-09-25T07:03:08.763Z,9.719198
2023-09-25T07:04:08.853Z,9.719262
2023-09-25T07:05:08.863Z,9.719305
2023-09-25T07:06:09.041Z,9.719261
2023-09-25T07:07:08.724Z,9.719145
2023-09-25T07:08:08.737Z,9.719174
2023-09-25T07:09:08.693Z,9.719115
2023-09-25T07:10:08.700Z,9.719211
2023-09-25T07:11:08.649Z,9.719288
2023-09-25T07:12:08.658Z,9.719330
2023-09-25T07:13:08.698Z,9.719163
2023-09-25T07:14:08.635Z,9.719198
2023-09-25T07:15:08.618Z,9.719236
2023-09-25T07:16:08.683Z,9.719292
2023-09-25T07:17:08.667Z,9.719238
2023-09-25T07:18:08.658Z,9.719471
2023-09-25T07:19:08.583Z,9.719645
2023-09-25T07:20:08.590Z,9.719380
2023-09-25T07:21:08.556Z,9.719512
2023-09-25T07:22:08.583Z,9.719657
2023-09-25T07:23:08.536Z,9.719660
2023-09-25T07:24:08.547Z,9.719695
2023-09-25T07:25:08.530Z,9.719474
2023-09-25T07:26:08.699Z,9.719557
2023-09-25T07:27:08.485Z,9.719334
2023-09-25T07:28:08.500Z,9.719246
2023-09-25T07:29:18.652Z,9.719410
2023-09-25T07:30:10.458Z,9.719343
2023-09-25T07:31:08.557Z,9.720214
2023-09-25T07:32:08.477Z,9.720838
2023-09-25T07:33:08.502Z,9.721153
2023-09-25T07:34:08.440Z,9.721189
2023-09-25T07:35:08.411Z,9.720552
2023-09-25T07:36:08.408Z,9.720038
2023-09-25T07:37:08.389Z,9.719904
2023-09-25T07:38:08.409Z,9.719189
2023-09-25T07:39:08.401Z,9.719110
2023-09-25T07:40:08.376Z,9.719043
2023-09-25T07:41:08.361Z,9.719018
2023-09-25T07:42:08.338Z,9.719051
2023-09-25T07:43:08.432Z,9.719169
2023-09-25T07:44:08.356Z,9.719125
2023-09-25T07:45:08.405Z,9.719151
2023-09-25T07:46:08.433Z,9.719061
2023-09-25T07:47:08.731Z,9.718995
2023-09-25T07:48:08.378Z,9.719107
2023-09-25T07:49:08.319Z,9.718968
2023-09-25T07:50:08.276Z,9.718987
2023-09-25T07:51:08.303Z,9.719048
2023-09-25T07:52:08.265Z,9.719056
2023-09-25T07:53:09.251Z,9.719107
2023-09-25T07:54:08.227Z,9.719095
2023-09-25T07:55:09.720Z,9.719049
2023-09-25T07:56:09.252Z,9.718996
2023-09-25T07:57:08.200Z,9.719002
2023-09-25T07:58:08.391Z,9.719015
2023-09-25T07:59:08.180Z,9.719023
2023-09-25T08:00:08.212Z,9.719037
2023-09-25T08:01:08.225Z,9.719007
2023-09-25T08:02:08.220Z,9.719009
2023-09-25T08:03:08.284Z,9.719098
2023-09-25T08:04:08.197Z,9.719091
2023-09-25T08:05:08.141Z,9.719055
2023-09-25T08:06:08.139Z,9.718961
2023-09-25T08:07:08.179Z,9.718964
2023-09-25T08:08:08.097Z,9.719059
2023-09-25T08:09:08.112Z,9.719042
2023-09-25T08:10:08.117Z,9.718972
2023-09-25T08:11:08.087Z,9.719034
2023-09-25T08:12:08.079Z,9.719167
2023-09-25T08:13:09.056Z,9.719068
2023-09-25T08:14:08.109Z,9.719001
2023-09-25T08:15:08.034Z,9.719095
2023-09-25T08:16:08.127Z,9.719078
2023-09-25T08:17:08.017Z,9.719027
2023-09-25T08:18:08.058Z,9.719081
2023-09-25T08:19:08.013Z,9.719130
2023-09-25T08:20:07.987Z,9.719242
2023-09-25T08:21:07.986Z,9.719332
2023-09-25T08:22:07.974Z,9.719324
2023-09-25T08:23:07.971Z,9.719349
2023-09-25T08:24:07.995Z,9.719292
2023-09-25T08:25:07.957Z,9.719357
2023-09-25T08:26:07.936Z,9.719323
2023-09-25T08:27:07.927Z,9.719280
2023-09-25T08:28:07.923Z,9.719164
2023-09-25T08:29:08.923Z,9.719237
2023-09-25T08:30:07.909Z,9.719233
2023-09-25T08:31:07.912Z,9.719227
2023-09-25T08:32:07.920Z,9.719268
2023-09-25T08:33:07.907Z,9.719263
2023-09-25T08:34:07.844Z,9.719168
2023-09-25T08:35:07.856Z,9.719306
2023-09-25T08:36:07.840Z,9.719325
2023-09-25T08:37:07.854Z,9.719280
2023-09-25T08:38:07.803Z,9.719339
2023-09-25T08:39:07.808Z,9.719332
2023-09-25T08:40:07.811Z,9.719262
2023-09-25T08:41:07.796Z,9.719315
2023-09-25T08:42:07.760Z,9.719365
2023-09-25T08:43:19.452Z,9.719275
2023-09-25T08:44:09.747Z,9.719305
2023-09-25T08:45:07.731Z,9.719215
2023-09-25T08:46:07.882Z,9.719257
2023-09-25T08:47:07.738Z,9.719290
2023-09-25T08:48:07.760Z,9.719258
2023-09-25T08:49:07.765Z,9.719326
2023-09-25T08:50:07.696Z,9.719351
2023-09-25T08:51:07.755Z,9.719300
2023-09-25T08:52:07.750Z,9.719266
2023-09-25T08:53:07.980Z,9.719110
2023-09-25T08:54:07.691Z,9.719251
2023-09-25T08:55:07.707Z,9.719237
2023-09-25T08:56:07.668Z,9.719233
2023-09-25T08:57:07.623Z,9.719246
2023-09-25T08:58:07.611Z,9.719333
2023-09-25T08:59:07.605Z,9.719308
2023-09-25T09:00:07.594Z,9.719232
2023-09-25T09:01:07.763Z,9.719221
2023-09-25T09:02:07.669Z,9.719256
2023-09-25T09:03:07.652Z,9.719185
2023-09-25T09:04:07.642Z,9.719231
2023-09-25T09:05:07.581Z,9.719122
2023-09-25T09:06:07.555Z,9.719182
2023-09-25T09:07:07.525Z,9.719259
2023-09-25T09:08:07.541Z,9.719276
2023-09-25T09:09:07.560Z,9.719142
2023-09-25T09:10:07.542Z,9.719150
2023-09-25T09:11:07.519Z,9.719148
2023-09-25T09:12:07.472Z,9.719221
2023-09-25T09:13:07.505Z,9.719286
2023-09-25T09:14:07.467Z,9.719370
2023-09-25T09:15:07.452Z,9.719285
2023-09-25T09:16:07.527Z,9.719294
2023-09-25T09:17:07.442Z,9.719307
2023-09-25T09:18:07.458Z,9.719173
2023-09-25T09:19:07.531Z,9.719198
2023-09-25T09:20:07.416Z,9.719228
2023-09-25T09:21:07.382Z,9.719308
2023-09-25T09:22:07.369Z,9.719293
2023-09-25T09:23:07.672Z,9.719305
2023-09-25T09:24:07.333Z,9.719183
2023-09-25T09:25:09.193Z,9.719298
2023-09-25T09:26:08.505Z,9.719191
2023-09-25T09:27:07.330Z,9.719283
2023-09-25T09:28:07.329Z,9.719384
2023-09-25T09:29:07.326Z,9.719267
2023-09-25T09:30:07.313Z,9.719179
2023-09-25T09:31:07.288Z,9.719396
2023-09-25T09:32:07.291Z,9.719319
2023-09-25T09:33:07.284Z,9.719262
2023-09-25T09:34:07.296Z,9.719252
2023-09-25T09:35:07.231Z,9.719197
2023-09-25T09:36:07.247Z,9.719219
2023-09-25T09:37:07.293Z,9.719259
2023-09-25T09:38:07.302Z,9.719332
2023-09-25T09:39:08.208Z,9.719294
2023-09-25T09:40:07.245Z,9.719212
2023-09-25T09:41:07.184Z,9.719171
2023-09-25T09:42:07.187Z,9.719375
2023-09-25T09:43:07.249Z,9.719539
2023-09-25T09:44:07.161Z,9.719462
2023-09-25T09:45:07.161Z,9.719395
2023-09-25T09:46:07.224Z,9.719523
2023-09-25T09:47:07.172Z,9.719281
2023-09-25T09:48:07.125Z,9.719529
2023-09-25T09:49:07.132Z,9.719481
2023-09-25T09:50:07.234Z,9.719481
2023-09-25T09:51:07.092Z,9.719504
2023-09-25T09:52:07.126Z,9.719423
2023-09-25T09:53:07.082Z,9.719419
2023-09-25T09:54:07.068Z,9.719387
2023-09-25T09:55:07.053Z,9.719332
2023-09-25T09:56:07.031Z,9.719278
2023-09-25T09:57:07.032Z,9.719299
2023-09-25T09:58:07.031Z,9.719366
2023-09-25T09:59:07.001Z,9.719252
2023-09-25T10:00:07.030Z,9.719356
2023-09-25T10:01:07.107Z,9.719367
2023-09-25T10:02:07.152Z,9.719386
2023-09-25T10:03:07.174Z,9.719404
2023-09-25T10:04:07.038Z,9.719355
2023-09-25T10:05:07.055Z,9.719374
2023-09-25T10:06:06.944Z,9.719265
2023-09-25T10:07:06.932Z,9.719258
2023-09-25T10:08:06.978Z,9.719188
2023-09-25T10:09:06.941Z,9.719247
2023-09-25T10:10:06.954Z,9.719244
2023-09-25T10:11:06.903Z,9.719403
2023-09-25T10:12:06.873Z,9.719277
2023-09-25T10:13:06.876Z,9.719254
2023-09-25T10:14:06.853Z,9.719166
2023-09-25T10:15:06.879Z,9.719296
2023-09-25T10:16:06.914Z,9.719243
2023-09-25T10:17:06.865Z,9.719199
2023-09-25T10:18:06.890Z,9.719179
2023-09-25T10:19:06.888Z,9.719162
2023-09-25T10:20:06.803Z,9.719284
2023-09-25T10:21:06.793Z,9.719187
2023-09-25T10:22:06.796Z,9.719180
2023-09-25T10:23:06.801Z,9.719203
2023-09-25T10:24:06.779Z,9.719300
2023-09-25T10:25:06.768Z,9.719275
2023-09-25T10:26:06.749Z,9.719216
2023-09-25T10:27:06.731Z,9.719277
2023-09-25T10:28:06.715Z,9.719210
2023-09-25T10:29:06.701Z,9.719254
2023-09-25T10:30:06.717Z,9.719275
2023-09-25T10:31:06.686Z,9.719313
2023-09-25T10:32:06.670Z,9.719293
2023-09-25T10:33:06.768Z,9.719265
2023-09-25T10:34:06.720Z,9.719230
2023-09-25T10:35:06.728Z,9.719112
2023-09-25T10:36:06.656Z,9.719281
2023-09-25T10:37:06.701Z,9.719247
2023-09-25T10:38:19.061Z,9.719157
2023-09-25T10:39:08.624Z,9.719277
2023-09-25T10:40:06.685Z,9.719344
2023-09-25T10:41:06.613Z,9.719315
2023-09-25T10:42:06.572Z,9.719315
2023-09-25T10:43:06.564Z,9.719315
2023-09-25T10:44:06.653Z,9.719230
2023-09-25T10:45:06.581Z,9.719230
2023-09-25T10:46:06.677Z,9.719230
2023-09-25T10:47:06.511Z,9.719230
2023-09-25T10:48:06.557Z,9.719383
2023-09-25T10:49:06.587Z,9.719383
2023-09-25T10:50:06.505Z,9.719383
2023-09-25T10:51:06.480Z,9.719238
2023-09-25T10:52:06.529Z,9.719002
2023-09-25T10:53:06.488Z,9.718429
2023-09-25T10:54:06.468Z,9.718162
2023-09-25T10:55:06.477Z,9.718368
2023-09-25T10:56:06.467Z,9.718781
2023-09-25T10:57:06.444Z,9.718966
2023-09-25T10:58:06.490Z,9.719450
2023-09-25T10:59:06.416Z,9.719213
2023-09-25T11:00:06.433Z,9.719171
2023-09-25T11:01:09.356Z,9.719163
2023-09-25T11:02:07.380Z,9.719116
2023-09-25T11:03:06.450Z,9.719055
2023-09-25T11:04:06.567Z,9.719073
2023-09-25T11:05:06.365Z,9.719058
2023-09-25T11:06:06.329Z,9.719012
2023-09-25T11:07:06.345Z,9.719031
2023-09-25T11:08:06.393Z,9.719056
2023-09-25T11:09:06.336Z,9.719035
2023-09-25T11:10:06.365Z,9.719049
2023-09-25T11:11:06.313Z,9.719069
2023-09-25T11:12:06.347Z,9.719062
2023-09-25T11:13:06.263Z,9.719026
2023-09-25T11:14:06.269Z,9.719064
2023-09-25T11:15:06.302Z,9.719081
2023-09-25T11:16:06.298Z,9.719030
2023-09-25T11:17:06.224Z,9.718962
2023-09-25T11:18:06.229Z,9.718998
2023-09-25T11:19:06.221Z,9.719031
2023-09-25T11:20:06.212Z,9.719067
2023-09-25T11:21:06.173Z,9.719069
2023-09-25T11:22:06.267Z,9.719135
2023-09-25T11:23:19.084Z,9.719064
2023-09-25T11:24:08.144Z,9.719027
2023-09-25T11:25:06.176Z,9.719004
2023-09-25T11:26:06.156Z,9.718972
2023-09-25T11:27:06.143Z,9.719064
2023-09-25T11:28:06.104Z,9.719102
2023-09-25T11:29:06.107Z,9.719026
2023-09-25T11:30:06.101Z,9.719139
2023-09-25T11:31:06.110Z,9.719157
2023-09-25T11:32:06.182Z,9.719091
2023-09-25T11:33:06.135Z,9.719112
2023-09-25T11:34:06.092Z,9.719134
2023-09-25T11:35:06.064Z,9.719238
2023-09-25T11:36:07.055Z,9.719246
2023-09-25T11:37:06.044Z,9.719236
2023-09-25T11:38:06.200Z,9.719194
2023-09-25T11:39:06.031Z,9.719194
2023-09-25T11:40:05.989Z,9.719167
2023-09-25T11:41:05.976Z,9.719140
2023-09-25T11:42:06.036Z,9.719028
2023-09-25T11:43:05.949Z,9.719134
2023-09-25T11:44:06.021Z,9.719187